createdAt,value
2022-12-18T00:00:16.586Z,-7.91
2022-12-18T00:03:06.912Z,-7.93
2022-12-18T00:05:55.242Z,-8.04
2022-12-18T00:08:46.201Z,-8.12
2022-12-18T00:11:34.496Z,-8.80
2022-12-18T00:14:22.550Z,-8.24
2022-12-18T00:17:10.582Z,-8.36
2022-12-18T00:19:58.677Z,-8.62
2022-12-18T00:22:47.118Z,-8.89
2022-12-18T00:25:36.992Z,-8.89
2022-12-18T00:28:25.248Z,-8.85
2022-12-18T00:31:16.010Z,-8.92
2022-12-18T00:34:05.363Z,-8.84
2022-12-18T00:36:53.916Z,-8.84
2022-12-18T00:39:43.871Z,-8.75
2022-12-18T00:42:50.742Z,-8.66
2022-12-18T00:45:39.487Z,-8.80
2022-12-18T00:48:27.992Z,-8.85
2022-12-18T00:51:16.388Z,-8.81
2022-12-18T00:54:04.599Z,-8.75
2022-12-18T00:56:52.883Z,-8.83
2022-12-18T00:59:42.401Z,-8.88
2022-12-18T01:02:30.760Z,-8.69
2022-12-18T01:05:19.057Z,-8.74
2022-12-18T01:08:07.291Z,-8.66
2022-12-18T01:10:55.674Z,-8.57
2022-12-18T01:13:44.723Z,-8.53
2022-12-18T01:16:34.472Z,-8.61
2022-12-18T01:19:22.780Z,-8.61
2022-12-18T01:22:11.216Z,-8.78
2022-12-18T01:24:59.723Z,-8.84
2022-12-18T01:27:48.037Z,-8.96
2022-12-18T01:30:36.576Z,-9.17
2022-12-18T01:33:26.315Z,-9.20
2022-12-18T01:36:19.965Z,-9.39
2022-12-18T01:39:10.336Z,-9.30
2022-12-18T01:42:08.802Z,-9.41
2022-12-18T01:45:05.066Z,-9.42
2022-12-18T01:47:56.449Z,-9.47
2022-12-18T01:50:46.308Z,-9.56
2022-12-18T01:53:35.159Z,-9.49
2022-12-18T01:56:24.795Z,-9.72
2022-12-18T01:59:15.573Z,-9.82
2022-12-18T02:02:05.578Z,-9.73
2022-12-18T02:04:54.658Z,-9.71
2022-12-18T02:07:59.276Z,-9.77
2022-12-18T02:10:56.329Z,-9.83
2022-12-18T02:13:53.584Z,-9.78
2022-12-18T02:16:50.859Z,-9.93
2022-12-18T02:19:55.624Z,-9.71
2022-12-18T02:23:03.633Z,-9.49
2022-12-18T02:26:17.331Z,-9.52
2022-12-18T02:29:17.140Z,-9.70
2022-12-18T02:32:12.044Z,-9.97
2022-12-18T02:35:04.282Z,-10.00
2022-12-18T02:37:56.470Z,-9.90
2022-12-18T02:40:50.755Z,-10.03
2022-12-18T02:43:52.670Z,-10.07
2022-12-18T02:46:46.400Z,-10.02
2022-12-18T02:49:47.491Z,-10.25
2022-12-18T02:52:47.488Z,-10.09
2022-12-18T02:55:52.913Z,-10.19
2022-12-18T02:59:04.560Z,-10.33
2022-12-18T03:02:09.972Z,-10.23
2022-12-18T03:05:13.657Z,-10.29
2022-12-18T03:08:11.532Z,-10.27
2022-12-18T03:11:09.706Z,-10.13
2022-12-18T03:14:03.177Z,-10.15
2022-12-18T03:16:55.760Z,-10.17
2022-12-18T03:19:48.178Z,-10.39
2022-12-18T03:22:39.941Z,-10.11
2022-12-18T03:25:31.362Z,-10.17
2022-12-18T03:28:24.462Z,-10.14
2022-12-18T03:31:26.472Z,-10.13
2022-12-18T03:34:19.898Z,-9.84
2022-12-18T03:37:10.300Z,-9.83
2022-12-18T03:40:00.082Z,-9.80
2022-12-18T03:42:54.637Z,-10.15
2022-12-18T03:45:50.346Z,-9.88
2022-12-18T03:48:48.831Z,-9.84
2022-12-18T03:51:45.609Z,-9.74
2022-12-18T03:54:43.540Z,-9.64
2022-12-18T03:57:37.012Z,-9.54
2022-12-18T04:00:27.883Z,-9.58
2022-12-18T04:03:36.419Z,-9.81
2022-12-18T04:06:29.535Z,-9.76
2022-12-18T04:09:23.871Z,-10.04
2022-12-18T04:12:16.387Z,-10.22
2022-12-18T04:15:12.185Z,-10.28
2022-12-18T04:18:02.247Z,-10.37
2022-12-18T04:21:05.212Z,-10.35
2022-12-18T04:23:59.216Z,-10.32
2022-12-18T04:26:48.467Z,-10.52
2022-12-18T04:29:39.484Z,-10.26
2022-12-18T04:32:39.261Z,-10.50
2022-12-18T04:35:29.014Z,-10.23
2022-12-18T04:38:21.966Z,-10.25
2022-12-18T04:41:19.505Z,-10.21
2022-12-18T04:44:11.235Z,-10.27
2022-12-18T04:47:00.810Z,-10.28
2022-12-18T04:49:50.182Z,-10.21
2022-12-18T04:52:39.312Z,-10.01
2022-12-18T04:55:28.739Z,-9.84
2022-12-18T04:58:19.271Z,-9.78
2022-12-18T05:01:11.654Z,-9.67
2022-12-18T05:04:05.868Z,-9.77
2022-12-18T05:06:55.234Z,-9.63
2022-12-18T05:09:44.792Z,-9.92
2022-12-18T05:12:59.323Z,-9.79
2022-12-18T05:16:01.284Z,-9.57
2022-12-18T05:18:53.720Z,-9.47
2022-12-18T05:21:47.959Z,-9.55
2022-12-18T05:24:38.886Z,-9.38
2022-12-18T05:27:28.034Z,-9.23
2022-12-18T05:30:18.680Z,-9.25
2022-12-18T05:33:12.659Z,-9.21
2022-12-18T05:36:06.122Z,-9.22
2022-12-18T05:38:55.295Z,-9.11
2022-12-18T05:41:44.355Z,-9.04
2022-12-18T05:44:35.827Z,-9.21
2022-12-18T05:47:25.504Z,-9.23
2022-12-18T05:50:16.500Z,-9.20
2022-12-18T05:53:06.958Z,-9.12
2022-12-18T05:55:56.174Z,-9.13
2022-12-18T05:58:54.439Z,-9.13
2022-12-18T06:01:44.439Z,-9.10
2022-12-18T06:04:33.202Z,-9.03
2022-12-18T06:07:23.754Z,-9.01
2022-12-18T06:10:12.991Z,-9.04
2022-12-18T06:13:01.645Z,-9.49
2022-12-18T06:15:50.170Z,-9.01
2022-12-18T06:18:38.601Z,-8.95
2022-12-18T06:21:26.991Z,-9.05
2022-12-18T06:24:17.713Z,-9.11
2022-12-18T06:27:06.691Z,-9.32
2022-12-18T06:29:59.721Z,-9.31
2022-12-18T06:32:56.682Z,-9.55
2022-12-18T06:35:49.366Z,-9.48
2022-12-18T06:38:41.132Z,-9.48
2022-12-18T06:41:31.685Z,-9.44
2022-12-18T06:44:20.953Z,-9.39
2022-12-18T06:47:10.037Z,-9.47
2022-12-18T06:49:58.912Z,-9.41
2022-12-18T06:52:47.445Z,-9.37
2022-12-18T06:55:36.377Z,-9.25
2022-12-18T06:58:26.887Z,-9.37
2022-12-18T07:01:16.488Z,-9.29
2022-12-18T07:03:45.601Z,-9.25
2022-12-18T07:06:19.836Z,-9.31
2022-12-18T07:08:49.089Z,-9.13
2022-12-18T07:11:18.677Z,-9.21
2022-12-18T07:13:48.790Z,-9.65
2022-12-18T07:16:24.662Z,-9.04
2022-12-18T07:18:54.520Z,-9.24
2022-12-18T07:21:25.391Z,-9.22
2022-12-18T07:23:54.164Z,-9.04
2022-12-18T07:26:24.078Z,-9.17
2022-12-18T07:28:58.949Z,-8.97
2022-12-18T07:31:29.065Z,-8.98
2022-12-18T07:33:58.471Z,-9.04
2022-12-18T07:36:28.338Z,-9.18
2022-12-18T07:38:58.387Z,-9.36
2022-12-18T07:41:27.651Z,-9.50
2022-12-18T07:44:01.790Z,-9.53
2022-12-18T07:46:32.448Z,-9.66
2022-12-18T07:49:14.531Z,-9.67
2022-12-18T07:51:50.708Z,-9.82
2022-12-18T07:54:28.200Z,-9.72
2022-12-18T07:57:33.751Z,-9.67
2022-12-18T08:00:09.146Z,-9.72
2022-12-18T08:02:45.054Z,-9.76
2022-12-18T08:05:14.845Z,-9.88
2022-12-18T08:07:46.509Z,-9.70
2022-12-18T08:10:16.532Z,-9.65
2022-12-18T08:12:45.783Z,-9.57
2022-12-18T08:15:20.662Z,-9.55
2022-12-18T08:17:55.135Z,-9.43
2022-12-18T08:20:33.453Z,-9.49
2022-12-18T08:23:03.722Z,-9.56
2022-12-18T08:25:33.993Z,-9.50
2022-12-18T08:28:03.240Z,-9.47
2022-12-18T08:30:39.049Z,-9.44
2022-12-18T08:33:09.520Z,-9.36
2022-12-18T08:35:45.988Z,-9.44
2022-12-18T08:38:17.797Z,-9.24
2022-12-18T08:40:48.177Z,-9.36
2022-12-18T08:43:46.296Z,-9.21
2022-12-18T08:46:24.322Z,-9.18
2022-12-18T08:48:59.977Z,-9.17
2022-12-18T08:51:45.841Z,-9.15
2022-12-18T08:54:33.011Z,-9.23
2022-12-18T08:57:05.774Z,-8.97
2022-12-18T08:59:37.293Z,-8.95
2022-12-18T09:02:17.027Z,-8.96
2022-12-18T09:04:53.809Z,-8.80
2022-12-18T09:07:28.798Z,-8.59
2022-12-18T09:09:57.382Z,-8.56
2022-12-18T09:12:25.911Z,-8.52
2022-12-18T09:14:54.216Z,-8.48
2022-12-18T09:17:24.607Z,-8.28
2022-12-18T09:19:53.197Z,-8.16
2022-12-18T09:22:21.574Z,-7.96
2022-12-18T09:24:50.846Z,-7.64
2022-12-18T09:27:19.102Z,-7.50
2022-12-18T09:29:47.069Z,-7.43
2022-12-18T09:32:21.999Z,-7.31
2022-12-18T09:34:51.799Z,-7.28
2022-12-18T09:37:20.354Z,-7.28
2022-12-18T09:39:48.264Z,-7.21
2022-12-18T09:42:22.015Z,-7.08
2022-12-18T09:44:52.955Z,-7.00
2022-12-18T09:47:26.014Z,-6.84
2022-12-18T09:49:59.429Z,-6.81
2022-12-18T09:52:34.628Z,-6.75
2022-12-18T09:55:08.626Z,-6.61
2022-12-18T09:57:42.743Z,-6.45
2022-12-18T10:00:19.899Z,-6.39
2022-12-18T10:02:49.131Z,-6.32
2022-12-18T10:05:22.715Z,-6.49
2022-12-18T10:08:01.763Z,-5.99
2022-12-18T10:10:39.440Z,-5.97
2022-12-18T10:13:17.466Z,-6.02
2022-12-18T10:15:56.985Z,-5.94
2022-12-18T10:18:40.305Z,-5.94
2022-12-18T10:21:16.903Z,-5.71
2022-12-18T10:23:53.635Z,-5.57
2022-12-18T10:26:22.821Z,-5.39
2022-12-18T10:28:51.835Z,-5.22
2022-12-18T10:31:24.666Z,-5.24
2022-12-18T10:33:55.638Z,-5.02
2022-12-18T10:36:26.783Z,-4.81
2022-12-18T10:38:55.096Z,-4.70
2022-12-18T10:41:29.516Z,-4.59
2022-12-18T10:44:14.204Z,-4.55
2022-12-18T10:46:43.334Z,-4.46
2022-12-18T10:49:23.337Z,-4.47
2022-12-18T10:52:05.705Z,-4.40
2022-12-18T10:54:35.879Z,-4.45
2022-12-18T10:57:17.044Z,-4.38
2022-12-18T10:59:53.697Z,-4.41
2022-12-18T11:02:30.499Z,-4.43
2022-12-18T11:05:01.425Z,-4.48
2022-12-18T11:07:50.045Z,-4.37
2022-12-18T11:10:18.839Z,-4.41
2022-12-18T11:12:46.986Z,-4.39
2022-12-18T11:15:21.736Z,-4.58
2022-12-18T11:17:52.645Z,-4.59
2022-12-18T11:20:32.618Z,-4.57
2022-12-18T11:23:04.465Z,-4.48
2022-12-18T11:25:35.633Z,-4.40
2022-12-18T11:28:07.725Z,-4.35
2022-12-18T11:30:36.767Z,-4.25
2022-12-18T11:33:08.377Z,-4.25
2022-12-18T11:35:51.508Z,-4.45
2022-12-18T11:38:26.351Z,-4.42
2022-12-18T11:41:00.523Z,-4.39
2022-12-18T11:43:32.001Z,-4.15
2022-12-18T11:46:06.859Z,-4.24
2022-12-18T11:48:40.537Z,-4.26
2022-12-18T11:51:16.848Z,-4.36
2022-12-18T11:53:49.162Z,-4.26
2022-12-18T11:56:32.024Z,-4.20
2022-12-18T11:59:11.234Z,-3.97
2022-12-18T12:01:50.849Z,-3.92
2022-12-18T12:04:41.155Z,-4.04
2022-12-18T12:07:22.050Z,-4.03
2022-12-18T12:10:01.286Z,-3.97
2022-12-18T12:12:49.038Z,-3.96
2022-12-18T12:15:29.412Z,-3.82
2022-12-18T12:18:11.319Z,-3.89
2022-12-18T12:20:49.332Z,-3.66
2022-12-18T12:23:27.891Z,-3.83
2022-12-18T12:26:06.084Z,-3.81
2022-12-18T12:28:53.062Z,-3.57
2022-12-18T12:31:31.253Z,-3.61
2022-12-18T12:34:09.333Z,-3.65
2022-12-18T12:36:47.980Z,-3.54
2022-12-18T12:39:19.677Z,-3.44
2022-12-18T12:42:06.727Z,-3.51
2022-12-18T12:44:43.236Z,-3.49
2022-12-18T12:47:17.341Z,-3.57
2022-12-18T12:49:51.611Z,-3.52
2022-12-18T12:52:29.552Z,-3.55
2022-12-18T12:54:58.636Z,-3.58
2022-12-18T12:57:35.423Z,-3.57
2022-12-18T13:00:10.222Z,-3.63
2022-12-18T13:02:44.640Z,-3.83
2022-12-18T13:05:22.233Z,-4.24
2022-12-18T13:07:54.688Z,-4.07
2022-12-18T13:10:36.152Z,-3.73
2022-12-18T13:13:09.036Z,-3.51
2022-12-18T13:15:41.098Z,-3.39
2022-12-18T13:18:16.686Z,-3.54
2022-12-18T13:20:53.667Z,-3.45
2022-12-18T13:23:37.213Z,-3.40
2022-12-18T13:26:30.676Z,-3.37
2022-12-18T13:29:02.805Z,-3.34
2022-12-18T13:32:02.307Z,-3.25
2022-12-18T13:34:32.221Z,-3.39
2022-12-18T13:37:34.007Z,-3.33
2022-12-18T13:40:02.131Z,-3.45
2022-12-18T13:43:05.805Z,-3.57
2022-12-18T13:45:42.581Z,-3.49
2022-12-18T13:48:19.307Z,-3.58
2022-12-18T13:50:54.367Z,-3.50
2022-12-18T13:53:27.868Z,-3.53
2022-12-18T13:55:56.011Z,-3.50
2022-12-18T13:58:24.259Z,-3.46
2022-12-18T14:00:53.982Z,-3.45
2022-12-18T14:03:24.617Z,-3.49
2022-12-18T14:05:58.032Z,-3.41
2022-12-18T14:08:29.443Z,-3.68
2022-12-18T14:10:58.416Z,-3.48
2022-12-18T14:13:30.074Z,-3.58
2022-12-18T14:16:03.787Z,-3.75
2022-12-18T14:18:40.645Z,-3.71
2022-12-18T14:21:17.646Z,-3.63
2022-12-18T14:23:46.292Z,-3.60
2022-12-18T14:26:28.087Z,-3.71
2022-12-18T14:28:56.489Z,-3.78
2022-12-18T14:31:28.047Z,-3.68
2022-12-18T14:33:56.200Z,-3.73
2022-12-18T14:36:26.648Z,-3.73
2022-12-18T14:38:55.759Z,-3.81
2022-12-18T14:41:24.456Z,-3.77
2022-12-18T14:43:54.771Z,-4.14
2022-12-18T14:46:37.644Z,-3.77
2022-12-18T14:49:17.657Z,-3.78
2022-12-18T14:51:50.525Z,-3.90
2022-12-18T14:54:19.928Z,-3.98
2022-12-18T14:56:50.505Z,-3.92
2022-12-18T14:59:24.469Z,-3.90
2022-12-18T15:02:01.354Z,-4.09
2022-12-18T15:04:32.861Z,-4.15
2022-12-18T15:07:13.355Z,-4.23
2022-12-18T15:09:43.709Z,-4.40
2022-12-18T15:12:34.069Z,-4.39
2022-12-18T15:15:01.797Z,-4.49
2022-12-18T15:17:31.059Z,-4.55
2022-12-18T15:20:03.160Z,-4.60
2022-12-18T15:22:32.726Z,-4.62
2022-12-18T15:25:01.403Z,-4.69
2022-12-18T15:27:32.923Z,-4.58
2022-12-18T15:30:19.158Z,-4.61
2022-12-18T15:32:49.764Z,-4.63
2022-12-18T15:35:20.671Z,-4.60
2022-12-18T15:37:49.400Z,-4.62
2022-12-18T15:40:19.267Z,-4.70
2022-12-18T15:43:06.701Z,-4.59
2022-12-18T15:45:34.645Z,-4.65
2022-12-18T15:48:03.894Z,-4.64
2022-12-18T15:50:31.674Z,-4.65
2022-12-18T15:52:59.880Z,-5.28
2022-12-18T15:55:45.570Z,-4.62
2022-12-18T15:58:13.307Z,-4.62
2022-12-18T16:00:42.923Z,-4.60
2022-12-18T16:03:12.326Z,-4.55
2022-12-18T16:05:40.219Z,-4.61
2022-12-18T16:08:07.833Z,-4.55
2022-12-18T16:10:36.780Z,-4.43
2022-12-18T16:13:04.483Z,-4.39
2022-12-18T16:15:32.164Z,-4.37
2022-12-18T16:17:59.811Z,-4.85
2022-12-18T16:20:28.872Z,-4.31
2022-12-18T16:22:56.796Z,-4.20
2022-12-18T16:25:26.383Z,-4.11
2022-12-18T16:27:56.030Z,-4.06
2022-12-18T16:30:25.119Z,-4.07
2022-12-18T16:32:53.790Z,-4.07
2022-12-18T16:35:21.674Z,-4.00
2022-12-18T16:37:50.775Z,-3.97
2022-12-18T16:40:19.513Z,-3.96
2022-12-18T16:42:48.131Z,-4.04
2022-12-18T16:45:18.189Z,-4.01
2022-12-18T16:47:46.208Z,-3.98
2022-12-18T16:50:14.405Z,-3.98
2022-12-18T16:52:42.283Z,-3.89
2022-12-18T16:55:11.664Z,-3.87
2022-12-18T16:57:39.408Z,-3.76
2022-12-18T17:00:08.709Z,-3.80
2022-12-18T17:02:37.571Z,-3.91
2022-12-18T17:05:06.253Z,-3.81
2022-12-18T17:07:34.009Z,-3.76
2022-12-18T17:10:03.050Z,-3.64
2022-12-18T17:12:32.098Z,-3.63
2022-12-18T17:14:59.769Z,-3.56
2022-12-18T17:17:27.411Z,-3.50
2022-12-18T17:19:55.301Z,-3.51
2022-12-18T17:22:24.006Z,-3.53
2022-12-18T17:24:51.959Z,-3.55
2022-12-18T17:27:19.777Z,-3.36
2022-12-18T17:29:49.242Z,-3.24
2022-12-18T17:32:17.524Z,-3.17
2022-12-18T17:34:45.436Z,-3.26
2022-12-18T17:37:13.160Z,-3.27
2022-12-18T17:39:41.986Z,-3.34
2022-12-18T17:42:14.943Z,-3.39
2022-12-18T17:44:44.062Z,-3.43
2022-12-18T17:47:13.750Z,-3.48
2022-12-18T17:49:41.609Z,-3.52
2022-12-18T17:52:09.465Z,-3.59
2022-12-18T17:54:39.673Z,-3.66
2022-12-18T17:57:07.640Z,-3.76
2022-12-18T17:59:35.259Z,-3.91
2022-12-18T18:02:03.267Z,-3.89
2022-12-18T18:04:32.550Z,-3.86
2022-12-18T18:07:00.328Z,-3.92
2022-12-18T18:09:28.283Z,-3.95
2022-12-18T18:12:15.074Z,-3.95
2022-12-18T18:14:42.883Z,-3.98
2022-12-18T18:17:11.200Z,-4.06
2022-12-18T18:19:41.955Z,-3.98
2022-12-18T18:22:11.916Z,-3.91
2022-12-18T18:24:39.686Z,-3.85
2022-12-18T18:27:07.317Z,-3.80
2022-12-18T18:29:35.182Z,-3.71
2022-12-18T18:32:02.942Z,-3.73
2022-12-18T18:34:32.278Z,-3.67
2022-12-18T18:37:02.973Z,-3.69
2022-12-18T18:39:31.221Z,-3.95
2022-12-18T18:42:00.724Z,-3.63
2022-12-18T18:44:30.776Z,-3.72
2022-12-18T18:46:59.276Z,-3.63
2022-12-18T18:49:28.292Z,-3.75
2022-12-18T18:51:56.994Z,-3.59
2022-12-18T18:54:26.141Z,-3.60
2022-12-18T18:59:41.554Z,-3.56
2022-12-18T19:02:12.440Z,-3.69
2022-12-18T19:04:44.718Z,-3.73
2022-12-18T19:07:15.506Z,-3.63
2022-12-18T19:10:04.807Z,-3.60
2022-12-18T19:12:51.710Z,-3.72
2022-12-18T19:15:19.416Z,-3.62
2022-12-18T19:17:47.962Z,-3.62
2022-12-18T19:20:16.327Z,-3.57
2022-12-18T19:22:46.103Z,-3.57
2022-12-18T19:25:38.097Z,-3.63
2022-12-18T19:28:21.262Z,-3.72
2022-12-18T19:30:57.293Z,-3.59
2022-12-18T19:33:43.695Z,-3.52
2022-12-18T19:36:14.631Z,-3.51
2022-12-18T19:38:45.004Z,-3.68
2022-12-18T19:41:15.420Z,-3.68
2022-12-18T19:43:43.773Z,-3.57
2022-12-18T19:46:14.043Z,-3.51
2022-12-18T19:48:42.601Z,-3.56
2022-12-18T19:51:14.764Z,-3.65
2022-12-18T19:53:42.511Z,-3.50
2022-12-18T19:56:12.575Z,-3.45
2022-12-18T19:58:41.905Z,-3.35
2022-12-18T20:01:09.972Z,-3.37
2022-12-18T20:03:40.400Z,-3.53
2022-12-18T20:06:09.714Z,-3.34
2022-12-18T20:08:37.467Z,-3.32
2022-12-18T20:11:05.609Z,-3.27
2022-12-18T20:13:34.119Z,-3.38
2022-12-18T20:16:03.387Z,-3.31
2022-12-18T20:18:31.193Z,-3.22
2022-12-18T20:20:58.959Z,-3.26
2022-12-18T20:23:28.776Z,-3.27
2022-12-18T20:25:58.771Z,-3.21
2022-12-18T20:28:26.591Z,-3.40
2022-12-18T20:31:00.309Z,-3.43
2022-12-18T20:33:29.702Z,-3.49
2022-12-18T20:36:02.704Z,-3.62
2022-12-18T20:38:31.394Z,-3.68
2022-12-18T20:41:02.235Z,-3.66
2022-12-18T20:43:30.006Z,-3.65
2022-12-18T20:46:03.039Z,-3.72
2022-12-18T20:48:33.319Z,-3.78
2022-12-18T20:51:03.841Z,-3.92
2022-12-18T20:53:32.083Z,-3.72
2022-12-18T20:55:59.953Z,-3.85
2022-12-18T20:58:27.751Z,-3.64
2022-12-18T21:01:03.782Z,-3.73
2022-12-18T21:03:52.620Z,-3.60
2022-12-18T21:06:42.019Z,-3.57
2022-12-18T21:09:38.289Z,-3.56
2022-12-18T21:12:40.255Z,-3.41
2022-12-18T21:15:32.137Z,-3.37
2022-12-18T21:18:20.136Z,-3.34
2022-12-18T21:21:09.439Z,-3.32
2022-12-18T21:23:57.644Z,-3.20
2022-12-18T21:26:46.980Z,-3.16
2022-12-18T21:29:35.119Z,-3.82
2022-12-18T21:32:23.649Z,-3.13
2022-12-18T21:35:13.218Z,-2.99
2022-12-18T21:38:03.867Z,-2.99
2022-12-18T21:40:53.769Z,-2.95
2022-12-18T21:43:59.529Z,-2.91
2022-12-18T21:46:55.641Z,-2.91
2022-12-18T21:49:46.240Z,-2.84
2022-12-18T21:52:34.200Z,-2.84
2022-12-18T21:55:23.490Z,-2.87
2022-12-18T21:58:11.498Z,-2.83
2022-12-18T22:00:59.449Z,-2.95
2022-12-18T22:03:48.043Z,-2.89
2022-12-18T22:06:36.136Z,-2.84
2022-12-18T22:09:26.317Z,-2.79
2022-12-18T22:12:34.997Z,-2.70
2022-12-18T22:15:23.111Z,-2.77
2022-12-18T22:18:14.196Z,-2.97
2022-12-18T22:21:02.636Z,-2.77
2022-12-18T22:23:54.201Z,-2.86
2022-12-18T22:26:42.822Z,-2.78
2022-12-18T22:29:49.705Z,-2.80
2022-12-18T22:32:37.640Z,-2.68
2022-12-18T22:35:26.005Z,-2.71
2022-12-18T22:38:13.951Z,-2.65
2022-12-18T22:41:04.578Z,-2.58
2022-12-18T22:43:52.503Z,-2.63
2022-12-18T22:46:44.999Z,-2.73
2022-12-18T22:49:35.185Z,-2.50
2022-12-18T22:52:25.018Z,-2.47
2022-12-18T22:55:13.255Z,-2.58
2022-12-18T22:58:01.272Z,-2.53
2022-12-18T23:00:49.257Z,-2.58
2022-12-18T23:03:38.559Z,-2.47
2022-12-18T23:06:28.533Z,-2.37
2022-12-18T23:09:18.234Z,-2.38
2022-12-18T23:12:06.973Z,-2.31
2022-12-18T23:14:55.129Z,-2.34
2022-12-18T23:17:43.093Z,-2.33
2022-12-18T23:20:32.372Z,-2.38
2022-12-18T23:23:20.402Z,-2.43
2022-12-18T23:26:11.677Z,-2.44
2022-12-18T23:29:01.285Z,-2.27
2022-12-18T23:31:49.301Z,-2.23
2022-12-18T23:34:37.275Z,-2.18
2022-12-18T23:37:57.137Z,-2.16
2022-12-18T23:40:34.476Z,-2.08
2022-12-18T23:43:22.427Z,-2.08
2022-12-18T23:46:14.010Z,-1.97
2022-12-18T23:49:03.954Z,-1.87
2022-12-18T23:51:55.006Z,-1.92
2022-12-18T23:54:44.260Z,-1.89
2022-12-18T23:57:32.191Z,-1.87
